sensor_id;sensor_type;location;lat;lon;timestamp;P1;durP1;ratioP1;P2;durP2;ratioP2
75218;SDS011;63801;49.414;19.474;2024-02-26T00:00:44;3.45;;;1.77;;
75218;SDS011;63801;49.414;19.474;2024-02-26T00:02:46;4.70;;;2.55;;
75218;SDS011;63801;49.414;19.474;2024-02-26T00:04:47;5.13;;;2.20;;
75218;SDS011;63801;49.414;19.474;2024-02-26T00:06:47;3.63;;;2.28;;
75218;SDS011;63801;49.414;19.474;2024-02-26T00:10:51;3.83;;;2.03;;
75218;SDS011;63801;49.414;19.474;2024-02-26T00:12:51;3.22;;;1.60;;
75218;SDS011;63801;49.414;19.474;2024-02-26T00:14:51;2.97;;;1.70;;
75218;SDS011;63801;49.414;19.474;2024-02-26T00:16:52;4.40;;;2.00;;
75218;SDS011;63801;49.414;19.474;2024-02-26T00:18:53;2.83;;;1.67;;
75218;SDS011;63801;49.414;19.474;2024-02-26T00:20:53;4.30;;;2.17;;
75218;SDS011;63801;49.414;19.474;2024-02-26T00:22:53;5.43;;;1.80;;
75218;SDS011;63801;49.414;19.474;2024-02-26T00:24:54;4.25;;;1.98;;
75218;SDS011;63801;49.414;19.474;2024-02-26T00:26:54;2.70;;;1.50;;
75218;SDS011;63801;49.414;19.474;2024-02-26T00:28:54;3.08;;;1.63;;
75218;SDS011;63801;49.414;19.474;2024-02-26T00:30:55;2.53;;;1.58;;
75218;SDS011;63801;49.414;19.474;2024-02-26T00:32:56;3.00;;;1.70;;
75218;SDS011;63801;49.414;19.474;2024-02-26T00:34:56;3.20;;;1.65;;
75218;SDS011;63801;49.414;19.474;2024-02-26T00:36:56;6.80;;;2.70;;
75218;SDS011;63801;49.414;19.474;2024-02-26T00:38:57;16.23;;;5.63;;
75218;SDS011;63801;49.414;19.474;2024-02-26T00:40:57;20.50;;;8.32;;
75218;SDS011;63801;49.414;19.474;2024-02-26T00:42:57;39.50;;;13.50;;
75218;SDS011;63801;49.414;19.474;2024-02-26T00:44:58;22.92;;;8.80;;
75218;SDS011;63801;49.414;19.474;2024-02-26T00:46:58;11.18;;;4.35;;
75218;SDS011;63801;49.414;19.474;2024-02-26T00:48:59;8.40;;;3.60;;
75218;SDS011;63801;49.414;19.474;2024-02-26T00:51:00;5.82;;;2.70;;
75218;SDS011;63801;49.414;19.474;2024-02-26T00:53:01;4.88;;;2.30;;
75218;SDS011;63801;49.414;19.474;2024-02-26T00:55:02;3.90;;;2.10;;
75218;SDS011;63801;49.414;19.474;2024-02-26T00:57:02;3.63;;;2.00;;
75218;SDS011;63801;49.414;19.474;2024-02-26T00:59:03;3.28;;;1.48;;
75218;SDS011;63801;49.414;19.474;2024-02-26T01:01:03;2.50;;;1.60;;
75218;SDS011;63801;49.414;19.474;2024-02-26T01:03:03;2.42;;;1.63;;
75218;SDS011;63801;49.414;19.474;2024-02-26T01:05:05;3.25;;;1.45;;
75218;SDS011;63801;49.414;19.474;2024-02-26T01:07:06;2.70;;;1.30;;
75218;SDS011;63801;49.414;19.474;2024-02-26T01:09:06;1.98;;;1.40;;
75218;SDS011;63801;49.414;19.474;2024-02-26T01:11:06;2.78;;;1.50;;
75218;SDS011;63801;49.414;19.474;2024-02-26T01:13:07;1.92;;;1.42;;
75218;SDS011;63801;49.414;19.474;2024-02-26T01:15:08;2.10;;;1.50;;
75218;SDS011;63801;49.414;19.474;2024-02-26T01:17:08;2.58;;;1.67;;
75218;SDS011;63801;49.414;19.474;2024-02-26T01:19:09;3.67;;;1.70;;
75218;SDS011;63801;49.414;19.474;2024-02-26T01:21:09;3.47;;;2.15;;
75218;SDS011;63801;49.414;19.474;2024-02-26T01:23:09;3.65;;;2.10;;
75218;SDS011;63801;49.414;19.474;2024-02-26T01:25:10;5.72;;;2.22;;
75218;SDS011;63801;49.414;19.474;2024-02-26T01:27:10;3.45;;;1.88;;
75218;SDS011;63801;49.414;19.474;2024-02-26T01:29:11;5.95;;;2.53;;
75218;SDS011;63801;49.414;19.474;2024-02-26T01:31:11;7.15;;;3.20;;
75218;SDS011;63801;49.414;19.474;2024-02-26T01:33:11;6.85;;;2.88;;
75218;SDS011;63801;49.414;19.474;2024-02-26T01:35:12;8.55;;;3.75;;
75218;SDS011;63801;49.414;19.474;2024-02-26T01:37:12;7.95;;;3.50;;
75218;SDS011;63801;49.414;19.474;2024-02-26T01:39:13;8.73;;;3.92;;
75218;SDS011;63801;49.414;19.474;2024-02-26T01:41:14;8.05;;;3.47;;
75218;SDS011;63801;49.414;19.474;2024-02-26T01:43:14;7.85;;;3.10;;
75218;SDS011;63801;49.414;19.474;2024-02-26T01:45:15;6.38;;;3.25;;
75218;SDS011;63801;49.414;19.474;2024-02-26T01:47:21;7.25;;;3.10;;
75218;SDS011;63801;49.414;19.474;2024-02-26T01:49:24;12.82;;;4.97;;
75218;SDS011;63801;49.414;19.474;2024-02-26T01:51:24;10.88;;;4.85;;
75218;SDS011;63801;49.414;19.474;2024-02-26T01:53:24;9.65;;;4.50;;
75218;SDS011;63801;49.414;19.474;2024-02-26T01:55:25;9.40;;;3.22;;
75218;SDS011;63801;49.414;19.474;2024-02-26T01:57:27;5.18;;;2.58;;
75218;SDS011;63801;49.414;19.474;2024-02-26T01:59:29;5.25;;;2.60;;
75218;SDS011;63801;49.414;19.474;2024-02-26T02:01:29;5.93;;;2.80;;
75218;SDS011;63801;49.414;19.474;2024-02-26T02:03:31;5.65;;;2.67;;
75218;SDS011;63801;49.414;19.474;2024-02-26T02:05:32;5.88;;;2.75;;
75218;SDS011;63801;49.414;19.474;2024-02-26T02:07:33;8.15;;;2.78;;
75218;SDS011;63801;49.414;19.474;2024-02-26T02:09:35;5.83;;;2.97;;
75218;SDS011;63801;49.414;19.474;2024-02-26T02:11:36;6.15;;;3.03;;
75218;SDS011;63801;49.414;19.474;2024-02-26T02:13:37;5.38;;;2.60;;
75218;SDS011;63801;49.414;19.474;2024-02-26T02:15:38;6.55;;;3.10;;
75218;SDS011;63801;49.414;19.474;2024-02-26T02:17:38;8.52;;;3.05;;
75218;SDS011;63801;49.414;19.474;2024-02-26T02:19:38;9.75;;;5.15;;
75218;SDS011;63801;49.414;19.474;2024-02-26T02:21:39;5.72;;;3.22;;
75218;SDS011;63801;49.414;19.474;2024-02-26T02:23:39;6.88;;;2.40;;
75218;SDS011;63801;49.414;19.474;2024-02-26T02:25:40;5.72;;;2.75;;
75218;SDS011;63801;49.414;19.474;2024-02-26T02:27:40;4.82;;;2.53;;
75218;SDS011;63801;49.414;19.474;2024-02-26T02:29:42;4.30;;;2.30;;
75218;SDS011;63801;49.414;19.474;2024-02-26T02:31:43;5.63;;;2.15;;
75218;SDS011;63801;49.414;19.474;2024-02-26T02:33:44;3.80;;;2.13;;
75218;SDS011;63801;49.414;19.474;2024-02-26T02:35:44;4.60;;;2.15;;
75218;SDS011;63801;49.414;19.474;2024-02-26T02:37:45;4.30;;;2.10;;
75218;SDS011;63801;49.414;19.474;2024-02-26T02:39:46;6.53;;;2.50;;
75218;SDS011;63801;49.414;19.474;2024-02-26T02:41:46;4.18;;;2.10;;
75218;SDS011;63801;49.414;19.474;2024-02-26T02:43:47;4.85;;;2.15;;
75218;SDS011;63801;49.414;19.474;2024-02-26T02:45:47;4.38;;;2.10;;
75218;SDS011;63801;49.414;19.474;2024-02-26T02:47:47;7.00;;;2.85;;
75218;SDS011;63801;49.414;19.474;2024-02-26T02:49:48;10.88;;;5.40;;
75218;SDS011;63801;49.414;19.474;2024-02-26T02:51:48;11.45;;;5.03;;
75218;SDS011;63801;49.414;19.474;2024-02-26T02:53:48;11.00;;;5.18;;
75218;SDS011;63801;49.414;19.474;2024-02-26T02:55:49;11.57;;;5.18;;
75218;SDS011;63801;49.414;19.474;2024-02-26T02:57:49;13.15;;;5.22;;
75218;SDS011;63801;49.414;19.474;2024-02-26T02:59:49;13.02;;;5.97;;
75218;SDS011;63801;49.414;19.474;2024-02-26T03:01:50;11.73;;;5.50;;
75218;SDS011;63801;49.414;19.474;2024-02-26T03:03:50;12.20;;;6.10;;
75218;SDS011;63801;49.414;19.474;2024-02-26T03:05:51;11.20;;;5.57;;
75218;SDS011;63801;49.414;19.474;2024-02-26T03:07:51;10.90;;;5.22;;
75218;SDS011;63801;49.414;19.474;2024-02-26T03:09:52;11.40;;;5.57;;
75218;SDS011;63801;49.414;19.474;2024-02-26T03:11:53;8.73;;;4.30;;
75218;SDS011;63801;49.414;19.474;2024-02-26T03:13:53;11.43;;;5.05;;
75218;SDS011;63801;49.414;19.474;2024-02-26T03:15:53;18.10;;;7.18;;
75218;SDS011;63801;49.414;19.474;2024-02-26T03:17:53;21.45;;;8.57;;
75218;SDS011;63801;49.414;19.474;2024-02-26T03:19:54;18.27;;;7.75;;
75218;SDS011;63801;49.414;19.474;2024-02-26T03:21:54;12.80;;;5.88;;
75218;SDS011;63801;49.414;19.474;2024-02-26T03:23:55;12.27;;;5.90;;
75218;SDS011;63801;49.414;19.474;2024-02-26T03:25:57;13.43;;;5.30;;
75218;SDS011;63801;49.414;19.474;2024-02-26T03:27:58;11.73;;;5.32;;
75218;SDS011;63801;49.414;19.474;2024-02-26T03:29:58;10.63;;;4.43;;
75218;SDS011;63801;49.414;19.474;2024-02-26T03:31:58;9.40;;;4.35;;
75218;SDS011;63801;49.414;19.474;2024-02-26T03:33:59;14.63;;;4.68;;
75218;SDS011;63801;49.414;19.474;2024-02-26T03:35:59;11.90;;;4.72;;
75218;SDS011;63801;49.414;19.474;2024-02-26T03:38:00;9.65;;;4.30;;
75218;SDS011;63801;49.414;19.474;2024-02-26T03:40:01;12.10;;;5.13;;
75218;SDS011;63801;49.414;19.474;2024-02-26T03:42:01;10.35;;;4.70;;
75218;SDS011;63801;49.414;19.474;2024-02-26T03:44:02;10.18;;;4.88;;
75218;SDS011;63801;49.414;19.474;2024-02-26T03:46:03;11.60;;;5.15;;
75218;SDS011;63801;49.414;19.474;2024-02-26T03:48:03;9.32;;;4.32;;
75218;SDS011;63801;49.414;19.474;2024-02-26T03:50:04;10.32;;;4.68;;
75218;SDS011;63801;49.414;19.474;2024-02-26T03:52:05;9.60;;;5.00;;
75218;SDS011;63801;49.414;19.474;2024-02-26T03:54:05;13.23;;;4.90;;
75218;SDS011;63801;49.414;19.474;2024-02-26T03:56:06;8.88;;;4.22;;
75218;SDS011;63801;49.414;19.474;2024-02-26T03:58:06;9.45;;;4.28;;
75218;SDS011;63801;49.414;19.474;2024-02-26T04:00:07;10.52;;;4.38;;
75218;SDS011;63801;49.414;19.474;2024-02-26T04:02:07;8.65;;;4.65;;
75218;SDS011;63801;49.414;19.474;2024-02-26T04:04:09;13.23;;;5.47;;
75218;SDS011;63801;49.414;19.474;2024-02-26T04:06:10;11.70;;;5.00;;
75218;SDS011;63801;49.414;19.474;2024-02-26T04:08:11;11.13;;;3.95;;
75218;SDS011;63801;49.414;19.474;2024-02-26T04:10:12;12.73;;;5.28;;
75218;SDS011;63801;49.414;19.474;2024-02-26T04:12:12;11.73;;;5.32;;
75218;SDS011;63801;49.414;19.474;2024-02-26T04:14:13;13.80;;;5.57;;
75218;SDS011;63801;49.414;19.474;2024-02-26T04:16:13;11.32;;;5.53;;
75218;SDS011;63801;49.414;19.474;2024-02-26T04:18:14;12.32;;;5.18;;
75218;SDS011;63801;49.414;19.474;2024-02-26T04:20:15;11.65;;;5.53;;
75218;SDS011;63801;49.414;19.474;2024-02-26T04:22:16;35.30;;;14.25;;
75218;SDS011;63801;49.414;19.474;2024-02-26T04:24:17;77.72;;;24.10;;
75218;SDS011;63801;49.414;19.474;2024-02-26T04:29:13;32.33;;;12.82;;
75218;SDS011;63801;49.414;19.474;2024-02-26T04:31:14;31.40;;;13.32;;
75218;SDS011;63801;49.414;19.474;2024-02-26T04:33:14;33.72;;;15.00;;
75218;SDS011;63801;49.414;19.474;2024-02-26T04:35:16;32.10;;;14.25;;
75218;SDS011;63801;49.414;19.474;2024-02-26T04:37:17;30.15;;;12.98;;
75218;SDS011;63801;49.414;19.474;2024-02-26T04:39:17;29.17;;;13.68;;
75218;SDS011;63801;49.414;19.474;2024-02-26T04:41:17;26.92;;;12.00;;
75218;SDS011;63801;49.414;19.474;2024-02-26T04:43:18;25.65;;;12.35;;
75218;SDS011;63801;49.414;19.474;2024-02-26T04:45:19;26.02;;;10.75;;
75218;SDS011;63801;49.414;19.474;2024-02-26T04:47:19;18.02;;;7.50;;
75218;SDS011;63801;49.414;19.474;2024-02-26T04:49:22;16.13;;;6.82;;
75218;SDS011;63801;49.414;19.474;2024-02-26T04:51:22;16.95;;;8.30;;
75218;SDS011;63801;49.414;19.474;2024-02-26T04:53:22;13.68;;;6.40;;
75218;SDS011;63801;49.414;19.474;2024-02-26T04:55:23;21.85;;;11.20;;
75218;SDS011;63801;49.414;19.474;2024-02-26T04:57:23;16.75;;;7.82;;
75218;SDS011;63801;49.414;19.474;2024-02-26T04:59:23;74.05;;;25.60;;
75218;SDS011;63801;49.414;19.474;2024-02-26T05:01:24;59.25;;;19.63;;
75218;SDS011;63801;49.414;19.474;2024-02-26T05:03:24;33.83;;;12.82;;
75218;SDS011;63801;49.414;19.474;2024-02-26T05:05:26;27.33;;;10.55;;
75218;SDS011;63801;49.414;19.474;2024-02-26T05:07:26;19.02;;;8.88;;
75218;SDS011;63801;49.414;19.474;2024-02-26T05:09:27;22.23;;;10.13;;
75218;SDS011;63801;49.414;19.474;2024-02-26T05:11:27;23.23;;;10.95;;
75218;SDS011;63801;49.414;19.474;2024-02-26T05:13:27;25.35;;;11.68;;
75218;SDS011;63801;49.414;19.474;2024-02-26T05:15:28;35.03;;;15.02;;
75218;SDS011;63801;49.414;19.474;2024-02-26T05:17:28;26.45;;;14.38;;
75218;SDS011;63801;49.414;19.474;2024-02-26T05:19:28;33.30;;;14.20;;
75218;SDS011;63801;49.414;19.474;2024-02-26T05:21:29;25.75;;;12.45;;
75218;SDS011;63801;49.414;19.474;2024-02-26T05:23:29;22.35;;;11.40;;
75218;SDS011;63801;49.414;19.474;2024-02-26T05:25:30;28.48;;;11.20;;
75218;SDS011;63801;49.414;19.474;2024-02-26T05:27:31;14.80;;;8.45;;
75218;SDS011;63801;49.414;19.474;2024-02-26T05:29:31;12.25;;;6.80;;
75218;SDS011;63801;49.414;19.474;2024-02-26T05:31:32;14.15;;;7.10;;
75218;SDS011;63801;49.414;19.474;2024-02-26T05:33:32;12.65;;;5.90;;
75218;SDS011;63801;49.414;19.474;2024-02-26T05:35:32;10.90;;;6.00;;
75218;SDS011;63801;49.414;19.474;2024-02-26T05:37:33;14.10;;;7.32;;
75218;SDS011;63801;49.414;19.474;2024-02-26T05:39:33;12.65;;;6.57;;
75218;SDS011;63801;49.414;19.474;2024-02-26T05:41:33;12.15;;;6.00;;
75218;SDS011;63801;49.414;19.474;2024-02-26T05:43:34;10.18;;;5.43;;
75218;SDS011;63801;49.414;19.474;2024-02-26T05:45:34;15.90;;;8.68;;
75218;SDS011;63801;49.414;19.474;2024-02-26T05:47:34;47.58;;;24.35;;
75218;SDS011;63801;49.414;19.474;2024-02-26T05:49:35;66.93;;;37.97;;
75218;SDS011;63801;49.414;19.474;2024-02-26T05:51:35;64.47;;;36.72;;
75218;SDS011;63801;49.414;19.474;2024-02-26T05:53:36;52.17;;;31.08;;
75218;SDS011;63801;49.414;19.474;2024-02-26T05:55:36;34.85;;;20.33;;
75218;SDS011;63801;49.414;19.474;2024-02-26T05:57:37;35.38;;;18.75;;
75218;SDS011;63801;49.414;19.474;2024-02-26T05:59:38;36.65;;;18.30;;
75218;SDS011;63801;49.414;19.474;2024-02-26T06:01:38;38.80;;;19.60;;
75218;SDS011;63801;49.414;19.474;2024-02-26T06:03:38;39.92;;;20.98;;
75218;SDS011;63801;49.414;19.474;2024-02-26T06:05:39;34.10;;;17.58;;
75218;SDS011;63801;49.414;19.474;2024-02-26T06:07:39;33.67;;;16.90;;
75218;SDS011;63801;49.414;19.474;2024-02-26T06:09:40;36.42;;;17.55;;
75218;SDS011;63801;49.414;19.474;2024-02-26T06:11:40;35.75;;;21.65;;
75218;SDS011;63801;49.414;19.474;2024-02-26T06:13:41;40.03;;;22.05;;
75218;SDS011;63801;49.414;19.474;2024-02-26T06:15:41;44.47;;;25.25;;
75218;SDS011;63801;49.414;19.474;2024-02-26T06:17:41;28.23;;;16.50;;
75218;SDS011;63801;49.414;19.474;2024-02-26T06:19:42;22.40;;;11.18;;
75218;SDS011;63801;49.414;19.474;2024-02-26T06:21:42;42.53;;;24.05;;
75218;SDS011;63801;49.414;19.474;2024-02-26T06:23:42;93.25;;;41.15;;
75218;SDS011;63801;49.414;19.474;2024-02-26T06:25:43;67.03;;;29.10;;
75218;SDS011;63801;49.414;19.474;2024-02-26T06:27:43;57.00;;;27.73;;
75218;SDS011;63801;49.414;19.474;2024-02-26T06:29:43;52.50;;;25.67;;
75218;SDS011;63801;49.414;19.474;2024-02-26T06:31:44;59.22;;;27.52;;
75218;SDS011;63801;49.414;19.474;2024-02-26T06:33:45;51.72;;;23.05;;
75218;SDS011;63801;49.414;19.474;2024-02-26T06:35:45;45.47;;;20.10;;
75218;SDS011;63801;49.414;19.474;2024-02-26T06:37:45;48.03;;;21.75;;
75218;SDS011;63801;49.414;19.474;2024-02-26T06:39:46;48.33;;;21.88;;
75218;SDS011;63801;49.414;19.474;2024-02-26T06:41:46;53.50;;;22.75;;
75218;SDS011;63801;49.414;19.474;2024-02-26T06:43:46;63.65;;;23.52;;
75218;SDS011;63801;49.414;19.474;2024-02-26T06:45:47;69.45;;;27.60;;
75218;SDS011;63801;49.414;19.474;2024-02-26T06:47:47;58.35;;;24.65;;
75218;SDS011;63801;49.414;19.474;2024-02-26T06:49:47;48.70;;;24.95;;
75218;SDS011;63801;49.414;19.474;2024-02-26T06:51:48;71.13;;;32.58;;
75218;SDS011;63801;49.414;19.474;2024-02-26T06:53:48;80.53;;;31.52;;
75218;SDS011;63801;49.414;19.474;2024-02-26T06:55:49;71.38;;;27.08;;
75218;SDS011;63801;49.414;19.474;2024-02-26T06:57:50;57.83;;;25.67;;
75218;SDS011;63801;49.414;19.474;2024-02-26T06:59:50;54.80;;;22.02;;
75218;SDS011;63801;49.414;19.474;2024-02-26T07:01:51;67.82;;;25.05;;
75218;SDS011;63801;49.414;19.474;2024-02-26T07:03:51;71.72;;;27.92;;
75218;SDS011;63801;49.414;19.474;2024-02-26T07:05:51;69.28;;;27.20;;
75218;SDS011;63801;49.414;19.474;2024-02-26T07:07:52;78.95;;;32.35;;
75218;SDS011;63801;49.414;19.474;2024-02-26T07:09:52;80.03;;;32.83;;
75218;SDS011;63801;49.414;19.474;2024-02-26T07:11:52;77.57;;;34.80;;
75218;SDS011;63801;49.414;19.474;2024-02-26T07:13:53;66.20;;;29.00;;
75218;SDS011;63801;49.414;19.474;2024-02-26T07:15:53;56.75;;;23.70;;
75218;SDS011;63801;49.414;19.474;2024-02-26T07:17:53;42.13;;;19.05;;
75218;SDS011;63801;49.414;19.474;2024-02-26T07:19:54;16.65;;;8.05;;
75218;SDS011;63801;49.414;19.474;2024-02-26T07:21:54;20.15;;;9.18;;
75218;SDS011;63801;49.414;19.474;2024-02-26T07:23:55;16.73;;;8.13;;
75218;SDS011;63801;49.414;19.474;2024-02-26T07:25:55;17.95;;;7.70;;
75218;SDS011;63801;49.414;19.474;2024-02-26T07:27:56;23.77;;;10.98;;
75218;SDS011;63801;49.414;19.474;2024-02-26T07:29:56;26.15;;;13.40;;
75218;SDS011;63801;49.414;19.474;2024-02-26T07:31:57;22.00;;;10.45;;
75218;SDS011;63801;49.414;19.474;2024-02-26T07:33:58;23.38;;;10.68;;
75218;SDS011;63801;49.414;19.474;2024-02-26T07:35:58;21.30;;;10.15;;
75218;SDS011;63801;49.414;19.474;2024-02-26T07:37:58;13.02;;;6.65;;
75218;SDS011;63801;49.414;19.474;2024-02-26T07:39:59;14.38;;;6.15;;
75218;SDS011;63801;49.414;19.474;2024-02-26T07:41:59;11.95;;;4.97;;
75218;SDS011;63801;49.414;19.474;2024-02-26T07:44:00;11.95;;;5.15;;
75218;SDS011;63801;49.414;19.474;2024-02-26T07:46:00;11.43;;;5.40;;
75218;SDS011;63801;49.414;19.474;2024-02-26T07:48:00;61.80;;;28.75;;
75218;SDS011;63801;49.414;19.474;2024-02-26T07:50:01;63.65;;;27.92;;
75218;SDS011;63801;49.414;19.474;2024-02-26T07:52:01;108.68;;;43.53;;
75218;SDS011;63801;49.414;19.474;2024-02-26T07:54:02;93.28;;;39.05;;
75218;SDS011;63801;49.414;19.474;2024-02-26T07:56:02;206.60;;;84.75;;
75218;SDS011;63801;49.414;19.474;2024-02-26T07:58:03;77.00;;;33.20;;
75218;SDS011;63801;49.414;19.474;2024-02-26T08:00:04;73.18;;;32.10;;
75218;SDS011;63801;49.414;19.474;2024-02-26T08:02:07;73.88;;;33.67;;
75218;SDS011;63801;49.414;19.474;2024-02-26T08:04:07;94.57;;;41.22;;
75218;SDS011;63801;49.414;19.474;2024-02-26T08:06:08;133.38;;;50.80;;
75218;SDS011;63801;49.414;19.474;2024-02-26T08:08:08;129.07;;;47.33;;
75218;SDS011;63801;49.414;19.474;2024-02-26T08:10:09;83.25;;;32.22;;
75218;SDS011;63801;49.414;19.474;2024-02-26T08:12:11;66.53;;;29.38;;
75218;SDS011;63801;49.414;19.474;2024-02-26T08:14:11;49.30;;;23.60;;
75218;SDS011;63801;49.414;19.474;2024-02-26T08:16:11;49.65;;;23.25;;
75218;SDS011;63801;49.414;19.474;2024-02-26T08:18:12;42.30;;;20.17;;
75218;SDS011;63801;49.414;19.474;2024-02-26T08:20:12;43.55;;;21.20;;
75218;SDS011;63801;49.414;19.474;2024-02-26T08:22:13;42.47;;;19.23;;
75218;SDS011;63801;49.414;19.474;2024-02-26T08:24:16;35.30;;;17.48;;
75218;SDS011;63801;49.414;19.474;2024-02-26T08:26:17;25.75;;;13.48;;
75218;SDS011;63801;49.414;19.474;2024-02-26T08:28:17;24.08;;;11.82;;
75218;SDS011;63801;49.414;19.474;2024-02-26T08:30:18;20.85;;;10.60;;
75218;SDS011;63801;49.414;19.474;2024-02-26T08:32:18;16.88;;;8.60;;
75218;SDS011;63801;49.414;19.474;2024-02-26T08:34:19;14.43;;;7.03;;
75218;SDS011;63801;49.414;19.474;2024-02-26T08:36:19;16.60;;;7.10;;
75218;SDS011;63801;49.414;19.474;2024-02-26T08:38:20;12.85;;;5.97;;
75218;SDS011;63801;49.414;19.474;2024-02-26T08:40:20;12.65;;;6.03;;
75218;SDS011;63801;49.414;19.474;2024-02-26T08:42:20;11.68;;;6.00;;
75218;SDS011;63801;49.414;19.474;2024-02-26T08:44:21;10.43;;;5.70;;
75218;SDS011;63801;49.414;19.474;2024-02-26T08:46:21;10.30;;;5.07;;
75218;SDS011;63801;49.414;19.474;2024-02-26T08:48:22;9.65;;;5.35;;
75218;SDS011;63801;49.414;19.474;2024-02-26T08:50:23;10.45;;;4.82;;
75218;SDS011;63801;49.414;19.474;2024-02-26T08:52:23;10.38;;;4.80;;
75218;SDS011;63801;49.414;19.474;2024-02-26T08:54:23;9.68;;;4.43;;
75218;SDS011;63801;49.414;19.474;2024-02-26T08:56:24;39.28;;;16.77;;
75218;SDS011;63801;49.414;19.474;2024-02-26T08:58:24;34.15;;;15.95;;
75218;SDS011;63801;49.414;19.474;2024-02-26T09:00:24;18.13;;;8.27;;
75218;SDS011;63801;49.414;19.474;2024-02-26T09:02:25;11.32;;;5.90;;
75218;SDS011;63801;49.414;19.474;2024-02-26T09:04:25;15.25;;;5.43;;
75218;SDS011;63801;49.414;19.474;2024-02-26T09:06:27;34.63;;;15.50;;
75218;SDS011;63801;49.414;19.474;2024-02-26T09:08:28;37.95;;;21.10;;
75218;SDS011;63801;49.414;19.474;2024-02-26T09:10:28;43.67;;;21.33;;
75218;SDS011;63801;49.414;19.474;2024-02-26T09:12:29;67.38;;;29.88;;
75218;SDS011;63801;49.414;19.474;2024-02-26T09:14:29;25.55;;;12.82;;
75218;SDS011;63801;49.414;19.474;2024-02-26T09:16:29;26.52;;;13.57;;
75218;SDS011;63801;49.414;19.474;2024-02-26T09:18:30;19.23;;;9.20;;
75218;SDS011;63801;49.414;19.474;2024-02-26T09:20:30;17.20;;;8.05;;
75218;SDS011;63801;49.414;19.474;2024-02-26T09:22:30;65.18;;;35.05;;
75218;SDS011;63801;49.414;19.474;2024-02-26T09:24:31;13.35;;;6.50;;
75218;SDS011;63801;49.414;19.474;2024-02-26T09:26:33;13.90;;;6.63;;
75218;SDS011;63801;49.414;19.474;2024-02-26T09:28:33;15.05;;;7.32;;
75218;SDS011;63801;49.414;19.474;2024-02-26T09:30:37;13.40;;;7.32;;
75218;SDS011;63801;49.414;19.474;2024-02-26T09:32:38;14.35;;;7.35;;
75218;SDS011;63801;49.414;19.474;2024-02-26T09:34:41;14.52;;;7.72;;
75218;SDS011;63801;49.414;19.474;2024-02-26T09:36:41;15.27;;;7.57;;
75218;SDS011;63801;49.414;19.474;2024-02-26T09:38:41;13.77;;;6.53;;
75218;SDS011;63801;49.414;19.474;2024-02-26T09:40:42;16.88;;;8.60;;
75218;SDS011;63801;49.414;19.474;2024-02-26T09:42:45;24.63;;;11.60;;
75218;SDS011;63801;49.414;19.474;2024-02-26T09:44:46;21.88;;;11.77;;
75218;SDS011;63801;49.414;19.474;2024-02-26T09:46:50;21.23;;;11.05;;
75218;SDS011;63801;49.414;19.474;2024-02-26T09:48:52;44.50;;;21.88;;
75218;SDS011;63801;49.414;19.474;2024-02-26T09:50:53;58.15;;;25.77;;
75218;SDS011;63801;49.414;19.474;2024-02-26T09:52:53;27.35;;;12.90;;
75218;SDS011;63801;49.414;19.474;2024-02-26T09:54:54;16.05;;;8.30;;
75218;SDS011;63801;49.414;19.474;2024-02-26T09:56:55;9.15;;;4.72;;
75218;SDS011;63801;49.414;19.474;2024-02-26T09:58:59;9.75;;;5.00;;
75218;SDS011;63801;49.414;19.474;2024-02-26T10:01:02;12.98;;;5.72;;
75218;SDS011;63801;49.414;19.474;2024-02-26T10:03:04;13.43;;;5.50;;
75218;SDS011;63801;49.414;19.474;2024-02-26T10:05:06;12.60;;;6.22;;
75218;SDS011;63801;49.414;19.474;2024-02-26T10:07:13;40.05;;;19.60;;
75218;SDS011;63801;49.414;19.474;2024-02-26T10:09:13;52.10;;;24.77;;
75218;SDS011;63801;49.414;19.474;2024-02-26T10:11:16;50.78;;;22.60;;
75218;SDS011;63801;49.414;19.474;2024-02-26T10:13:17;48.08;;;20.58;;
75218;SDS011;63801;49.414;19.474;2024-02-26T10:15:20;41.22;;;18.40;;
75218;SDS011;63801;49.414;19.474;2024-02-26T10:17:20;52.10;;;21.40;;
75218;SDS011;63801;49.414;19.474;2024-02-26T10:19:28;49.00;;;24.73;;
75218;SDS011;63801;49.414;19.474;2024-02-26T10:21:29;46.85;;;22.27;;
75218;SDS011;63801;49.414;19.474;2024-02-26T10:23:30;46.25;;;19.38;;
75218;SDS011;63801;49.414;19.474;2024-02-26T10:25:30;40.53;;;18.33;;
75218;SDS011;63801;49.414;19.474;2024-02-26T10:27:31;46.38;;;22.92;;
75218;SDS011;63801;49.414;19.474;2024-02-26T10:29:32;54.30;;;24.27;;
75218;SDS011;63801;49.414;19.474;2024-02-26T10:31:32;40.92;;;19.00;;
75218;SDS011;63801;49.414;19.474;2024-02-26T10:33:33;33.53;;;16.83;;
75218;SDS011;63801;49.414;19.474;2024-02-26T10:35:36;36.17;;;20.35;;
75218;SDS011;63801;49.414;19.474;2024-02-26T10:37:40;33.30;;;17.75;;
75218;SDS011;63801;49.414;19.474;2024-02-26T10:39:46;30.67;;;16.90;;
75218;SDS011;63801;49.414;19.474;2024-02-26T10:41:47;27.48;;;13.70;;
75218;SDS011;63801;49.414;19.474;2024-02-26T10:43:47;25.20;;;12.80;;
75218;SDS011;63801;49.414;19.474;2024-02-26T10:45:47;23.70;;;10.85;;
75218;SDS011;63801;49.414;19.474;2024-02-26T10:47:48;17.15;;;8.90;;
75218;SDS011;63801;49.414;19.474;2024-02-26T10:49:48;17.13;;;8.38;;
75218;SDS011;63801;49.414;19.474;2024-02-26T10:54:34;17.60;;;9.43;;
75218;SDS011;63801;49.414;19.474;2024-02-26T10:56:38;18.63;;;9.80;;
75218;SDS011;63801;49.414;19.474;2024-02-26T10:58:41;17.75;;;7.43;;
75218;SDS011;63801;49.414;19.474;2024-02-26T11:00:43;16.17;;;7.60;;
75218;SDS011;63801;49.414;19.474;2024-02-26T11:02:44;15.40;;;6.70;;
75218;SDS011;63801;49.414;19.474;2024-02-26T11:04:46;13.95;;;6.10;;
75218;SDS011;63801;49.414;19.474;2024-02-26T11:06:47;12.25;;;5.70;;
75218;SDS011;63801;49.414;19.474;2024-02-26T11:08:49;13.07;;;6.93;;
75218;SDS011;63801;49.414;19.474;2024-02-26T11:10:52;13.60;;;7.18;;
75218;SDS011;63801;49.414;19.474;2024-02-26T11:12:53;16.65;;;9.98;;
75218;SDS011;63801;49.414;19.474;2024-02-26T11:14:55;15.48;;;8.23;;
75218;SDS011;63801;49.414;19.474;2024-02-26T11:16:58;21.77;;;9.63;;
75218;SDS011;63801;49.414;19.474;2024-02-26T11:18:59;17.30;;;9.63;;
75218;SDS011;63801;49.414;19.474;2024-02-26T11:21:02;21.02;;;10.35;;
75218;SDS011;63801;49.414;19.474;2024-02-26T11:23:04;29.45;;;13.52;;
75218;SDS011;63801;49.414;19.474;2024-02-26T11:25:04;23.13;;;12.43;;
75218;SDS011;63801;49.414;19.474;2024-02-26T11:27:06;21.50;;;11.45;;
75218;SDS011;63801;49.414;19.474;2024-02-26T11:29:09;23.40;;;11.73;;
75218;SDS011;63801;49.414;19.474;2024-02-26T11:33:18;21.27;;;10.45;;
75218;SDS011;63801;49.414;19.474;2024-02-26T11:37:41;24.33;;;13.07;;
75218;SDS011;63801;49.414;19.474;2024-02-26T11:40:09;22.73;;;10.80;;
75218;SDS011;63801;49.414;19.474;2024-02-26T11:42:23;38.53;;;10.52;;
75218;SDS011;63801;49.414;19.474;2024-02-26T11:44:29;17.38;;;9.57;;
75218;SDS011;63801;49.414;19.474;2024-02-26T11:46:42;22.02;;;8.65;;
75218;SDS011;63801;49.414;19.474;2024-02-26T11:48:58;13.05;;;6.43;;
75218;SDS011;63801;49.414;19.474;2024-02-26T11:51:17;13.48;;;6.40;;
75218;SDS011;63801;49.414;19.474;2024-02-26T11:53:33;12.13;;;6.25;;
75218;SDS011;63801;49.414;19.474;2024-02-26T11:55:47;29.60;;;19.85;;
75218;SDS011;63801;49.414;19.474;2024-02-26T11:58:09;50.75;;;26.00;;